createdAt,value
2022-10-17T00:00:18.008Z,79.78
2022-10-17T00:02:44.971Z,79.98
2022-10-17T00:05:12.212Z,79.88
2022-10-17T00:07:39.031Z,79.32
2022-10-17T00:10:07.865Z,79.28
2022-10-17T00:12:35.573Z,79.29
2022-10-17T00:15:07.299Z,79.77
2022-10-17T00:17:34.498Z,79.46
2022-10-17T00:20:01.908Z,79.39
2022-10-17T00:22:28.804Z,79.39
2022-10-17T00:24:55.588Z,79.01
2022-10-17T00:27:22.348Z,80.04
2022-10-17T00:29:50.943Z,79.64
2022-10-17T00:32:18.972Z,78.37
2022-10-17T00:34:46.522Z,78.29
2022-10-17T00:37:13.277Z,78.80
2022-10-17T00:39:39.987Z,79.16
2022-10-17T00:42:06.810Z,80.37
2022-10-17T00:44:33.511Z,80.60
2022-10-17T00:47:10.524Z,80.63
2022-10-17T00:49:39.021Z,80.85
2022-10-17T00:52:11.996Z,80.88
2022-10-17T00:54:42.945Z,80.23
2022-10-17T00:57:09.998Z,80.88
2022-10-17T00:59:38.539Z,80.38
2022-10-17T01:02:13.568Z,79.93
2022-10-17T01:04:42.211Z,79.85
2022-10-17T01:07:09.772Z,80.15
2022-10-17T01:09:37.310Z,80.05
2022-10-17T01:12:52.146Z,80.04
2022-10-17T01:15:28.116Z,79.65
2022-10-17T01:18:05.012Z,79.33
2022-10-17T01:20:59.828Z,79.53
2022-10-17T01:23:38.665Z,79.42
2022-10-17T01:26:42.428Z,79.77
2022-10-17T01:29:18.452Z,78.75
2022-10-17T01:31:52.972Z,79.36
2022-10-17T01:34:33.486Z,78.43
2022-10-17T01:37:14.735Z,78.89
2022-10-17T01:40:21.560Z,78.05
2022-10-17T01:43:07.134Z,78.64
2022-10-17T01:45:38.748Z,78.26
2022-10-17T01:48:11.914Z,77.50
2022-10-17T01:50:42.559Z,77.82
2022-10-17T01:53:16.755Z,78.29
2022-10-17T01:55:45.833Z,78.35
2022-10-17T01:58:27.048Z,77.91
2022-10-17T02:00:54.927Z,78.02
2022-10-17T02:03:22.074Z,77.71
2022-10-17T02:05:48.843Z,77.86
2022-10-17T02:08:28.543Z,77.72
2022-10-17T02:11:03.761Z,77.97
2022-10-17T02:13:55.240Z,77.96
2022-10-17T02:16:47.355Z,78.03
2022-10-17T02:19:52.478Z,77.30
2022-10-17T02:22:34.931Z,77.81
2022-10-17T02:25:07.709Z,77.48
2022-10-17T02:27:34.839Z,77.52
2022-10-17T02:30:32.451Z,76.81
2022-10-17T02:33:06.487Z,76.91
2022-10-17T02:35:36.603Z,77.17
2022-10-17T02:38:05.683Z,77.63
2022-10-17T02:40:32.484Z,78.32
2022-10-17T02:43:01.004Z,78.12
2022-10-17T02:45:30.210Z,77.45
2022-10-17T02:47:57.267Z,77.46
2022-10-17T02:53:09.455Z,76.83
2022-10-17T02:55:40.453Z,76.65
2022-10-17T02:58:10.888Z,76.67
2022-10-17T03:00:40.882Z,76.73
2022-10-17T03:03:30.820Z,75.97
2022-10-17T03:06:01.194Z,76.15
2022-10-17T03:08:28.110Z,76.21
2022-10-17T03:10:56.096Z,76.34
2022-10-17T03:13:23.284Z,76.63
2022-10-17T03:15:50.482Z,76.74
2022-10-17T03:18:17.219Z,77.44
2022-10-17T03:20:45.079Z,77.51
2022-10-17T03:23:11.845Z,78.14
2022-10-17T03:25:38.762Z,76.86
2022-10-17T03:28:05.782Z,77.18
2022-10-17T03:30:33.610Z,77.24
2022-10-17T03:33:00.880Z,77.32
2022-10-17T03:35:27.889Z,77.64
2022-10-17T03:37:58.163Z,78.23
2022-10-17T03:40:26.925Z,78.01
2022-10-17T03:42:54.229Z,77.92
2022-10-17T03:45:21.024Z,77.88
2022-10-17T03:47:48.430Z,78.04
2022-10-17T03:50:15.644Z,78.60
2022-10-17T03:52:47.284Z,78.42
2022-10-17T03:55:14.670Z,77.95
2022-10-17T03:57:43.422Z,78.48
2022-10-17T04:00:13.262Z,78.43
2022-10-17T04:02:48.883Z,78.19
2022-10-17T04:05:18.666Z,77.80
2022-10-17T04:07:46.175Z,78.21
2022-10-17T04:10:14.713Z,77.91
2022-10-17T04:12:41.931Z,77.79
2022-10-17T04:15:09.553Z,78.34
2022-10-17T04:17:38.322Z,77.43
2022-10-17T04:20:07.174Z,77.93
2022-10-17T04:22:34.760Z,78.77
2022-10-17T04:25:01.741Z,78.34
2022-10-17T04:27:34.635Z,79.04
2022-10-17T04:30:01.567Z,79.10
2022-10-17T04:32:30.988Z,79.66
2022-10-17T04:35:04.987Z,79.96
2022-10-17T04:37:32.376Z,80.52
2022-10-17T04:40:02.500Z,79.83
2022-10-17T04:42:32.316Z,79.70
2022-10-17T04:44:59.639Z,79.81
2022-10-17T04:47:27.204Z,79.67
2022-10-17T04:49:57.738Z,80.08
2022-10-17T04:52:25.313Z,79.24
2022-10-17T04:54:53.017Z,78.93
2022-10-17T04:57:21.284Z,78.47
2022-10-17T04:59:58.779Z,79.29
2022-10-17T05:02:48.232Z,79.10
2022-10-17T05:05:15.679Z,79.28
2022-10-17T05:07:44.475Z,79.51
2022-10-17T05:10:14.341Z,78.89
2022-10-17T05:12:44.526Z,79.67
2022-10-17T05:15:12.610Z,78.91
2022-10-17T05:17:40.367Z,79.49
2022-10-17T05:20:08.243Z,79.59
2022-10-17T05:22:38.349Z,79.69
2022-10-17T05:25:08.751Z,78.69
2022-10-17T05:27:35.595Z,78.31
2022-10-17T05:30:02.649Z,78.68
2022-10-17T05:32:33.595Z,78.55
2022-10-17T05:35:01.127Z,79.67
2022-10-17T05:37:29.700Z,79.86
2022-10-17T05:39:57.309Z,79.90
2022-10-17T05:42:25.263Z,80.28
2022-10-17T05:44:52.095Z,80.43
2022-10-17T05:47:19.752Z,80.56
2022-10-17T05:49:51.442Z,80.21
2022-10-17T05:52:23.992Z,80.00
2022-10-17T05:55:07.210Z,79.66
2022-10-17T05:57:33.963Z,79.96
2022-10-17T06:00:01.733Z,79.65
2022-10-17T06:02:41.043Z,78.93
2022-10-17T06:05:08.947Z,78.97
2022-10-17T06:07:36.094Z,79.07
2022-10-17T06:10:04.054Z,78.46
2022-10-17T06:12:31.071Z,78.03
2022-10-17T06:14:59.227Z,78.04
2022-10-17T06:17:26.474Z,77.10
2022-10-17T06:19:53.228Z,76.74
2022-10-17T06:22:20.110Z,76.17
2022-10-17T06:24:46.878Z,75.55
2022-10-17T06:27:14.596Z,75.34
2022-10-17T06:29:41.761Z,74.89
2022-10-17T06:32:11.306Z,74.74
2022-10-17T06:34:42.096Z,73.62
2022-10-17T06:37:09.654Z,73.20
2022-10-17T06:39:38.214Z,72.97
2022-10-17T06:42:09.896Z,72.54
2022-10-17T06:45:02.010Z,72.20
2022-10-17T06:47:37.808Z,70.75
2022-10-17T06:50:27.464Z,70.55
2022-10-17T06:53:14.522Z,69.04
2022-10-17T06:56:04.231Z,69.66
2022-10-17T06:58:50.888Z,67.01
2022-10-17T07:01:46.265Z,67.05
2022-10-17T07:04:14.688Z,66.93
2022-10-17T07:06:41.583Z,65.20
2022-10-17T07:09:15.058Z,64.29
2022-10-17T07:11:42.221Z,64.34
2022-10-17T07:14:08.998Z,62.43
2022-10-17T07:16:35.944Z,62.19
2022-10-17T07:19:09.111Z,60.66
2022-10-17T07:21:39.369Z,59.23
2022-10-17T07:24:07.905Z,58.35
2022-10-17T07:26:34.867Z,57.72
2022-10-17T07:29:02.481Z,57.63
2022-10-17T07:31:37.162Z,55.66
2022-10-17T07:34:03.960Z,56.06
2022-10-17T07:36:30.744Z,54.32
2022-10-17T07:38:59.330Z,53.78
2022-10-17T07:41:26.874Z,52.62
2022-10-17T07:43:53.943Z,52.30
2022-10-17T07:46:25.696Z,51.00
2022-10-17T07:48:52.580Z,49.97
2022-10-17T07:51:22.085Z,49.68
2022-10-17T07:53:49.059Z,48.35
2022-10-17T07:56:16.257Z,49.04
2022-10-17T07:58:43.136Z,47.13
2022-10-17T08:01:15.408Z,47.25
2022-10-17T08:03:44.386Z,45.92
2022-10-17T08:06:11.045Z,46.23
2022-10-17T08:08:37.847Z,45.57
2022-10-17T08:11:06.828Z,43.95
2022-10-17T08:13:34.223Z,43.53
2022-10-17T08:16:02.196Z,42.87
2022-10-17T08:18:29.320Z,41.78
2022-10-17T08:21:00.305Z,40.70
2022-10-17T08:23:28.162Z,39.49
2022-10-17T08:25:54.880Z,39.01
2022-10-17T08:28:21.692Z,39.17
2022-10-17T08:30:48.603Z,37.51
2022-10-17T08:33:15.396Z,37.67
2022-10-17T08:35:42.180Z,34.71
2022-10-17T08:38:11.075Z,34.87
2022-10-17T08:40:42.894Z,34.65
2022-10-17T08:43:30.340Z,34.92
2022-10-17T08:46:03.248Z,33.64
2022-10-17T08:48:32.648Z,32.88
2022-10-17T08:51:00.719Z,33.20
2022-10-17T08:53:41.924Z,30.87
2022-10-17T08:56:25.155Z,30.42
2022-10-17T08:59:06.468Z,30.85
2022-10-17T09:01:34.437Z,30.06
2022-10-17T09:04:26.233Z,28.80
2022-10-17T09:07:11.741Z,29.38
2022-10-17T09:09:53.757Z,27.24
2022-10-17T09:12:58.064Z,27.56
2022-10-17T09:15:43.500Z,27.22
2022-10-17T09:18:19.816Z,25.49
2022-10-17T09:20:54.007Z,26.84
2022-10-17T09:23:32.181Z,25.38
2022-10-17T09:28:38.407Z,23.66
2022-10-17T09:31:21.828Z,23.69
2022-10-17T09:33:54.284Z,23.87
2022-10-17T09:36:26.393Z,23.08
2022-10-17T09:38:57.790Z,22.23
2022-10-17T09:41:44.969Z,22.93
2022-10-17T09:44:29.472Z,23.71
2022-10-17T09:47:11.292Z,24.48
2022-10-17T09:49:40.159Z,21.73
2022-10-17T09:52:12.530Z,21.18
2022-10-17T09:54:51.521Z,21.71
2022-10-17T09:57:19.967Z,21.05
2022-10-17T10:00:05.544Z,20.90
2022-10-17T10:02:40.935Z,20.49
2022-10-17T10:05:25.933Z,18.77
2022-10-17T10:08:05.157Z,20.09
2022-10-17T10:10:32.526Z,20.93
2022-10-17T10:13:14.501Z,20.23
2022-10-17T10:15:46.917Z,20.09
2022-10-17T10:21:23.665Z,19.10
2022-10-17T10:24:04.536Z,20.69
2022-10-17T10:26:44.297Z,20.48
2022-10-17T10:29:34.402Z,19.85
2022-10-17T10:35:42.121Z,20.03
2022-10-17T10:38:11.360Z,19.30
2022-10-17T10:40:45.210Z,18.78
2022-10-17T10:43:23.167Z,19.99
2022-10-17T10:45:50.186Z,19.84
2022-10-17T10:48:22.882Z,19.38
2022-10-17T10:50:49.575Z,19.49
2022-10-17T10:53:35.568Z,18.91
2022-10-17T10:56:14.860Z,19.40
2022-10-17T10:58:43.593Z,18.56
2022-10-17T11:01:17.665Z,19.30
2022-10-17T11:04:01.377Z,20.12
2022-10-17T11:06:31.455Z,19.51
2022-10-17T11:08:58.193Z,18.38
2022-10-17T11:11:39.090Z,18.03
2022-10-17T11:14:32.162Z,17.71
2022-10-17T11:17:53.539Z,16.34
2022-10-17T11:20:47.717Z,17.50
2022-10-17T11:23:19.941Z,16.71
2022-10-17T11:25:48.639Z,16.87
2022-10-17T11:28:17.689Z,17.59
2022-10-17T11:30:48.461Z,18.30
2022-10-17T11:33:48.386Z,17.20
2022-10-17T11:36:18.596Z,16.99
2022-10-17T11:38:47.977Z,18.44
2022-10-17T11:41:27.800Z,16.90
2022-10-17T11:44:10.216Z,17.36
2022-10-17T11:46:37.836Z,17.96
2022-10-17T11:49:16.206Z,17.26
2022-10-17T11:52:18.556Z,17.73
2022-10-17T11:55:00.639Z,19.03
2022-10-17T11:58:01.591Z,18.72
2022-10-17T12:00:55.945Z,19.33
2022-10-17T12:03:44.740Z,18.38
2022-10-17T12:06:41.624Z,17.19
2022-10-17T12:09:12.397Z,18.05
2022-10-17T12:11:55.032Z,18.13
2022-10-17T12:14:49.810Z,18.44
2022-10-17T12:17:28.125Z,18.64
2022-10-17T12:20:17.722Z,17.32
2022-10-17T12:22:48.764Z,18.17
2022-10-17T12:25:39.173Z,17.81
2022-10-17T12:28:22.623Z,16.97
2022-10-17T12:31:08.812Z,17.76
2022-10-17T12:33:57.638Z,17.54
2022-10-17T12:36:34.443Z,17.47
2022-10-17T12:39:35.200Z,18.14
2022-10-17T12:42:33.555Z,17.73
2022-10-17T12:45:44.822Z,17.62
2022-10-17T12:48:46.009Z,18.33
2022-10-17T12:51:40.743Z,16.96
2022-10-17T12:54:16.839Z,18.08
2022-10-17T12:56:53.312Z,17.10
2022-10-17T12:59:25.836Z,17.34
2022-10-17T13:01:58.650Z,17.34
2022-10-17T13:04:28.157Z,17.68
2022-10-17T13:07:20.419Z,17.22
2022-10-17T13:09:50.637Z,16.85
2022-10-17T13:12:30.245Z,16.77
2022-10-17T13:14:57.522Z,17.12
2022-10-17T13:17:31.138Z,17.50
2022-10-17T13:19:58.685Z,17.35
2022-10-17T13:22:29.507Z,17.55
2022-10-17T13:25:08.862Z,17.04
2022-10-17T13:27:36.642Z,18.13
2022-10-17T13:30:31.230Z,16.86
2022-10-17T13:33:01.885Z,17.17
2022-10-17T13:38:26.677Z,16.96
2022-10-17T13:41:01.761Z,17.56
2022-10-17T13:43:40.372Z,16.01
2022-10-17T13:46:35.718Z,16.73
2022-10-17T13:48:54.569Z,17.14
2022-10-17T13:51:22.043Z,16.31
2022-10-17T13:53:51.142Z,17.14
2022-10-17T13:56:28.807Z,17.22
2022-10-17T13:59:05.216Z,17.15
2022-10-17T14:01:34.567Z,16.94
2022-10-17T14:04:08.945Z,17.20
2022-10-17T14:06:47.559Z,17.49
2022-10-17T14:09:22.483Z,17.31
2022-10-17T14:12:08.716Z,15.98
2022-10-17T14:14:58.025Z,17.05
2022-10-17T14:17:28.283Z,16.51
2022-10-17T14:20:14.217Z,17.10
2022-10-17T14:22:54.392Z,18.58
2022-10-17T14:25:31.433Z,20.79
2022-10-17T14:28:09.320Z,22.93
2022-10-17T14:30:55.644Z,24.31
2022-10-17T14:33:30.684Z,25.51
2022-10-17T14:36:00.007Z,26.75
2022-10-17T14:38:28.586Z,27.43
2022-10-17T14:41:29.632Z,27.84
2022-10-17T14:43:58.359Z,28.72
2022-10-17T14:46:25.556Z,27.67
2022-10-17T14:48:59.216Z,28.39
2022-10-17T14:51:26.063Z,29.26
2022-10-17T14:54:26.388Z,30.55
2022-10-17T14:56:56.381Z,30.77
2022-10-17T14:59:52.158Z,32.38
2022-10-17T15:02:12.051Z,33.16
2022-10-17T15:04:38.867Z,33.91
2022-10-17T15:07:05.691Z,34.31
2022-10-17T15:09:32.820Z,34.48
2022-10-17T15:12:04.687Z,36.06
2022-10-17T15:14:31.500Z,36.98
2022-10-17T15:16:58.364Z,36.88
2022-10-17T15:19:27.297Z,37.42
2022-10-17T15:21:54.135Z,38.92
2022-10-17T15:24:20.960Z,39.62
2022-10-17T15:26:47.913Z,39.58
2022-10-17T15:29:16.155Z,40.85
2022-10-17T15:31:42.886Z,41.19
2022-10-17T15:34:09.632Z,42.07
2022-10-17T15:36:40.355Z,42.19
2022-10-17T15:39:07.328Z,42.50
2022-10-17T15:41:52.880Z,42.69
2022-10-17T15:44:19.863Z,43.54
2022-10-17T15:46:46.754Z,44.84
2022-10-17T15:49:15.070Z,45.57
2022-10-17T15:51:41.725Z,45.71
2022-10-17T15:54:10.737Z,46.10
2022-10-17T15:56:40.077Z,46.09
2022-10-17T15:59:12.965Z,46.37
2022-10-17T16:01:40.377Z,46.75
2022-10-17T16:04:14.818Z,46.81
2022-10-17T16:06:42.713Z,46.75
2022-10-17T16:09:10.185Z,47.09
2022-10-17T16:11:42.116Z,47.73
2022-10-17T16:14:14.236Z,48.23
2022-10-17T16:16:41.523Z,49.12
2022-10-17T16:19:08.779Z,48.63
2022-10-17T16:21:40.650Z,50.22
2022-10-17T16:24:11.340Z,51.25
2022-10-17T16:26:43.100Z,51.60
2022-10-17T16:29:10.345Z,52.14
2022-10-17T16:31:41.184Z,51.85
2022-10-17T16:34:11.718Z,52.25
2022-10-17T16:36:39.119Z,52.67
2022-10-17T16:39:06.638Z,52.66
2022-10-17T16:41:38.337Z,52.83
2022-10-17T16:44:07.105Z,53.22
2022-10-17T16:46:36.557Z,53.05
2022-10-17T16:49:05.259Z,52.48
2022-10-17T16:51:33.797Z,53.05
2022-10-17T16:54:00.717Z,52.12
2022-10-17T16:56:32.767Z,52.25
2022-10-17T16:59:00.570Z,53.16
2022-10-17T17:01:29.862Z,52.43
2022-10-17T17:03:57.078Z,51.76
2022-10-17T17:06:26.863Z,51.22
2022-10-17T17:08:54.800Z,50.27
2022-10-17T17:11:23.730Z,50.44
2022-10-17T17:13:50.860Z,49.35
2022-10-17T17:16:22.376Z,50.03
2022-10-17T17:18:52.022Z,48.92
2022-10-17T17:21:18.899Z,50.17
2022-10-17T17:23:45.705Z,49.59
2022-10-17T17:26:15.155Z,49.22
2022-10-17T17:28:42.971Z,48.73
2022-10-17T17:31:12.075Z,48.62
2022-10-17T17:33:39.676Z,49.14
2022-10-17T17:36:07.268Z,48.95
2022-10-17T17:38:35.419Z,49.20
2022-10-17T17:41:02.883Z,50.29
2022-10-17T17:43:30.172Z,50.02
2022-10-17T17:45:56.975Z,49.78
2022-10-17T17:48:24.771Z,50.78
2022-10-17T17:50:51.706Z,50.43
2022-10-17T17:53:18.948Z,48.79
2022-10-17T17:55:45.728Z,50.63
2022-10-17T17:58:12.645Z,50.21
2022-10-17T18:00:40.902Z,50.29
2022-10-17T18:03:08.193Z,50.87
2022-10-17T18:05:35.406Z,50.27
2022-10-17T18:08:06.583Z,50.58
2022-10-17T18:10:38.851Z,51.08
2022-10-17T18:13:05.896Z,50.93
2022-10-17T18:15:32.881Z,52.14
2022-10-17T18:18:00.181Z,50.42
2022-10-17T18:20:29.822Z,51.75
2022-10-17T18:23:01.930Z,52.60
2022-10-17T18:25:31.175Z,52.78
2022-10-17T18:27:58.161Z,52.14
2022-10-17T18:30:27.285Z,52.72
2022-10-17T18:32:55.936Z,53.06
2022-10-17T18:35:23.319Z,53.70
2022-10-17T18:37:50.564Z,54.21
2022-10-17T18:40:18.923Z,54.42
2022-10-17T18:42:48.155Z,55.23
2022-10-17T18:45:15.830Z,55.59
2022-10-17T18:47:52.700Z,55.04
2022-10-17T18:50:20.700Z,55.53
2022-10-17T18:52:50.887Z,55.92
2022-10-17T18:55:20.555Z,55.55
2022-10-17T18:57:49.330Z,55.29
2022-10-17T19:00:19.240Z,56.00
2022-10-17T19:02:46.070Z,55.09
2022-10-17T19:05:12.869Z,54.48
2022-10-17T19:07:39.694Z,54.35
2022-10-17T19:10:06.822Z,54.19
2022-10-17T19:12:33.829Z,53.79
2022-10-17T19:15:00.624Z,54.20
2022-10-17T19:17:27.684Z,55.16
2022-10-17T19:19:55.221Z,55.79
2022-10-17T19:22:22.080Z,54.88
2022-10-17T19:24:51.248Z,55.46
2022-10-17T19:27:20.311Z,56.15
2022-10-17T19:29:47.089Z,55.53
2022-10-17T19:32:16.768Z,57.36
2022-10-17T19:34:46.038Z,57.80
2022-10-17T19:37:13.005Z,57.59
2022-10-17T19:39:39.812Z,58.28
2022-10-17T19:42:07.144Z,58.64
2022-10-17T19:44:37.005Z,58.56
2022-10-17T19:47:03.970Z,58.33
2022-10-17T19:49:30.871Z,59.40
2022-10-17T19:51:57.795Z,59.65
2022-10-17T19:54:24.658Z,59.48
2022-10-17T19:56:53.927Z,59.81
2022-10-17T19:59:20.904Z,60.90
2022-10-17T20:01:48.005Z,60.63
2022-10-17T20:04:17.735Z,60.11
2022-10-17T20:06:48.856Z,60.95
2022-10-17T20:09:17.675Z,60.70
2022-10-17T20:11:47.216Z,60.69
2022-10-17T20:14:14.231Z,61.43
2022-10-17T20:16:41.168Z,61.25
2022-10-17T20:19:10.697Z,61.59
2022-10-17T20:21:39.742Z,61.30
2022-10-17T20:24:08.184Z,61.96
2022-10-17T20:26:39.609Z,62.17
2022-10-17T20:29:17.838Z,62.83
2022-10-17T20:31:47.627Z,62.77
2022-10-17T20:34:17.038Z,62.97
2022-10-17T20:36:49.466Z,62.79
2022-10-17T20:39:20.301Z,63.84
2022-10-17T20:41:52.298Z,63.83
2022-10-17T20:44:19.123Z,64.30
2022-10-17T20:47:00.653Z,65.45
2022-10-17T20:49:30.578Z,64.74
2022-10-17T20:52:00.171Z,65.22
2022-10-17T20:54:28.420Z,65.85
2022-10-17T20:56:55.319Z,66.26
2022-10-17T20:59:22.174Z,65.65
2022-10-17T21:01:49.081Z,66.20
2022-10-17T21:04:44.339Z,66.23
2022-10-17T21:07:02.716Z,66.90
2022-10-17T21:09:29.640Z,66.74
2022-10-17T21:11:56.967Z,67.75
2022-10-17T21:14:24.974Z,68.02
2022-10-17T21:16:52.362Z,67.95
2022-10-17T21:19:19.373Z,67.96
2022-10-17T21:21:46.681Z,67.41
2022-10-17T21:24:16.917Z,67.81
2022-10-17T21:26:45.116Z,67.83
2022-10-17T21:29:13.203Z,67.98
2022-10-17T21:31:42.324Z,67.63
2022-10-17T21:34:14.734Z,67.21
2022-10-17T21:36:41.906Z,66.92
2022-10-17T21:39:10.244Z,67.94
2022-10-17T21:41:37.250Z,68.05
2022-10-17T21:44:07.112Z,68.77
2022-10-17T21:46:34.209Z,68.96
2022-10-17T21:49:01.636Z,68.78
2022-10-17T21:51:28.781Z,68.25
2022-10-17T21:53:57.632Z,68.72
2022-10-17T21:56:31.163Z,69.12
2022-10-17T21:58:58.872Z,67.78
2022-10-17T22:01:28.258Z,68.40
2022-10-17T22:03:57.754Z,69.69
2022-10-17T22:06:44.773Z,69.66
2022-10-17T22:09:14.520Z,69.80
2022-10-17T22:11:42.307Z,68.90
2022-10-17T22:14:13.009Z,68.30
2022-10-17T22:16:40.384Z,68.37
2022-10-17T22:19:08.412Z,68.71
2022-10-17T22:21:36.711Z,68.22
2022-10-17T22:24:06.404Z,69.16
2022-10-17T22:26:35.177Z,69.84
2022-10-17T22:29:02.182Z,67.92
2022-10-17T22:31:29.090Z,69.26
2022-10-17T22:33:56.053Z,69.64
2022-10-17T22:36:23.077Z,70.82
2022-10-17T22:38:49.948Z,70.59
2022-10-17T22:41:17.054Z,70.84
2022-10-17T22:43:44.403Z,71.00
2022-10-17T22:46:13.093Z,70.65
2022-10-17T22:48:40.414Z,71.30
2022-10-17T22:51:07.401Z,71.01
2022-10-17T22:53:35.250Z,70.98
2022-10-17T22:56:03.405Z,71.05
2022-10-17T22:58:31.869Z,71.25
2022-10-17T23:00:58.977Z,72.04
2022-10-17T23:03:27.712Z,71.75
2022-10-17T23:05:54.750Z,72.04
2022-10-17T23:08:21.569Z,72.54
2022-10-17T23:10:48.561Z,73.02
2022-10-17T23:13:18.871Z,72.67
2022-10-17T23:15:46.021Z,72.98
2022-10-17T23:18:12.928Z,73.02
2022-10-17T23:20:39.665Z,73.09
2022-10-17T23:23:06.676Z,72.99
2022-10-17T23:25:34.643Z,72.98
2022-10-17T23:28:02.019Z,73.64
2022-10-17T23:30:29.179Z,73.28
2022-10-17T23:32:55.932Z,73.73
2022-10-17T23:35:23.166Z,74.38
2022-10-17T23:37:49.971Z,74.03
2022-10-17T23:40:16.926Z,74.00
2022-10-17T23:42:43.815Z,74.33
2022-10-17T23:45:11.168Z,74.84
2022-10-17T23:47:37.975Z,74.93
2022-10-17T23:50:05.688Z,75.01
2022-10-17T23:52:32.800Z,74.86
2022-10-17T23:54:59.627Z,75.40
2022-10-17T23:57:26.487Z,75.28
2022-10-17T23:59:53.266Z,75.15
